Georgetown, South Carolina
Current Conditions -  °F | °C
As of 8:15 AM on Friday 28 Nov 2014 (Local Time) from KGGE Reporting Station
Clear Clear  
Wind Chill: 29°   Ceiling: Unl
Heat Index: 36°   Visibility: 10mi
Dew Point: 30°   Wind: 9mph
Humidity: 81%   Direction: 360°N
Pressure: 30.38"   Gusts: NA
Location:  33.37°N, 79.28°W
Report Text: KGGE 281315Z AUTO 36008KT 10SM CLR 02/M01 A3038 RMK AO2
Loading
Personal Weather Stations






























Interactive Weather Map New forecast layout! Learn more

10-Day Weather Forecast

Advertisements
Track Severe Weather on mobile